createdAt,value
2018-02-09T00:01:35.071Z,0.70
2018-02-09T00:04:03.992Z,0.60
2018-02-09T00:06:32.106Z,0.70
2018-02-09T00:09:00.255Z,0.70
2018-02-09T00:11:28.404Z,0.70
2018-02-09T00:13:56.555Z,0.70
2018-02-09T00:16:25.455Z,0.70
2018-02-09T00:18:53.610Z,0.70
2018-02-09T00:21:21.790Z,0.70
2018-02-09T00:23:50.004Z,0.70
2018-02-09T00:26:18.130Z,0.70
2018-02-09T00:28:47.033Z,0.70
2018-02-09T00:31:15.922Z,0.70
2018-02-09T00:33:44.842Z,0.80
2018-02-09T00:36:12.977Z,0.70
2018-02-09T00:38:41.116Z,0.70
2018-02-09T00:41:09.349Z,0.70
2018-02-09T00:43:38.259Z,0.80
2018-02-09T00:46:06.408Z,0.80
2018-02-09T00:48:35.283Z,0.70
2018-02-09T00:51:04.180Z,0.50
2018-02-09T00:53:33.058Z,0.50
2018-02-09T00:56:02.091Z,0.40
2018-02-09T00:58:30.207Z,0.40
2018-02-09T01:00:58.355Z,0.40
2018-02-09T01:03:26.566Z,0.50
2018-02-09T01:05:55.799Z,0.50
2018-02-09T01:08:24.669Z,0.60
2018-02-09T01:10:53.549Z,0.60
2018-02-09T01:13:22.474Z,0.50
2018-02-09T01:15:50.597Z,0.50
2018-02-09T01:18:19.598Z,0.50
2018-02-09T01:20:48.485Z,0.50
2018-02-09T01:23:17.415Z,0.50
2018-02-09T01:25:45.529Z,0.50
2018-02-09T01:28:13.659Z,0.50
2018-02-09T01:30:41.800Z,0.60
2018-02-09T01:33:10.698Z,0.60
2018-02-09T01:35:39.592Z,0.60
2018-02-09T01:38:07.724Z,0.60
2018-02-09T01:40:35.879Z,0.60
2018-02-09T01:43:04.008Z,0.60
2018-02-09T01:45:32.155Z,0.60
2018-02-09T01:48:00.295Z,0.60
2018-02-09T01:50:28.511Z,0.60
2018-02-09T01:52:57.405Z,0.50
2018-02-09T01:55:26.394Z,0.50
2018-02-09T01:57:55.290Z,0.50
2018-02-09T02:00:24.271Z,0.50
2018-02-09T02:02:53.158Z,0.60
2018-02-09T02:05:22.162Z,0.60
2018-02-09T02:07:51.259Z,0.60
2018-02-09T02:10:20.241Z,0.60
2018-02-09T02:12:48.349Z,0.50
2018-02-09T02:15:16.505Z,0.60
2018-02-09T02:17:45.393Z,0.60
2018-02-09T02:20:13.561Z,0.60
2018-02-09T02:22:42.485Z,0.60
2018-02-09T02:25:10.606Z,0.60
2018-02-09T02:27:38.768Z,0.60
2018-02-09T02:30:06.934Z,0.60
2018-02-09T02:32:35.079Z,0.60
2018-02-09T02:35:03.243Z,0.60
2018-02-09T02:37:32.132Z,0.60
2018-02-09T02:40:00.617Z,0.50
2018-02-09T02:42:28.738Z,0.50
2018-02-09T02:44:56.886Z,0.40
2018-02-09T02:47:25.009Z,0.40
2018-02-09T02:49:53.927Z,0.40
2018-02-09T02:52:22.055Z,0.40
2018-02-09T02:54:50.960Z,0.50
2018-02-09T02:57:19.851Z,0.50
2018-02-09T02:59:48.763Z,0.50
2018-02-09T03:02:16.897Z,0.50
2018-02-09T03:04:45.005Z,0.40
2018-02-09T03:07:13.135Z,0.30
2018-02-09T03:09:41.273Z,0.40
2018-02-09T03:12:09.419Z,0.30
2018-02-09T03:14:37.533Z,0.40
2018-02-09T03:17:05.674Z,0.40
2018-02-09T03:19:33.800Z,0.40
2018-02-09T03:22:01.971Z,0.40
2018-02-09T03:24:30.102Z,0.40
2018-02-09T03:26:58.257Z,0.40
2018-02-09T03:29:26.404Z,0.40
2018-02-09T03:31:55.294Z,0.40
2018-02-09T03:34:24.193Z,0.40
2018-02-09T03:36:52.327Z,0.40
2018-02-09T03:39:20.466Z,0.40
2018-02-09T03:41:48.597Z,0.40
2018-02-09T03:44:16.780Z,0.50
2018-02-09T03:46:45.079Z,0.40
2018-02-09T03:49:13.946Z,0.30
2018-02-09T03:51:42.854Z,0.30
2018-02-09T03:54:10.969Z,0.30
2018-02-09T03:56:39.109Z,0.30
2018-02-09T03:59:07.249Z,0.30
2018-02-09T04:01:36.442Z,0.20
2018-02-09T04:04:05.331Z,0.20
2018-02-09T04:06:34.222Z,0.30
2018-02-09T04:09:03.138Z,0.20
2018-02-09T04:11:31.249Z,0.20
2018-02-09T04:14:00.923Z,0.30
2018-02-09T04:16:29.028Z,0.30
2018-02-09T04:18:57.175Z,0.30
2018-02-09T04:21:25.334Z,0.30
2018-02-09T04:23:53.471Z,0.30
2018-02-09T04:26:22.357Z,0.30
2018-02-09T04:28:51.260Z,0.40
2018-02-09T04:31:20.209Z,0.40
2018-02-09T04:33:48.289Z,0.40
2018-02-09T04:36:16.454Z,0.40
2018-02-09T04:38:44.576Z,0.40
2018-02-09T04:41:12.696Z,0.40
2018-02-09T04:43:40.834Z,0.40
2018-02-09T04:46:09.015Z,0.40
2018-02-09T04:48:37.123Z,0.40
2018-02-09T04:51:05.245Z,0.40
2018-02-09T04:53:33.393Z,0.40
2018-02-09T04:56:02.304Z,0.40
2018-02-09T04:58:30.429Z,0.40
2018-02-09T05:00:58.543Z,0.50
2018-02-09T05:03:26.677Z,0.50
2018-02-09T05:05:54.817Z,0.50
2018-02-09T05:08:22.951Z,0.50
2018-02-09T05:10:51.873Z,0.50
2018-02-09T05:13:19.996Z,0.50
2018-02-09T05:15:48.908Z,0.50
2018-02-09T05:18:17.036Z,0.40
2018-02-09T05:20:45.166Z,0.40
2018-02-09T05:23:13.313Z,0.40
2018-02-09T05:25:42.206Z,0.40
2018-02-09T05:28:11.117Z,0.30
2018-02-09T05:30:39.241Z,0.30
2018-02-09T05:33:07.394Z,0.30
2018-02-09T05:35:35.514Z,0.30
2018-02-09T05:38:04.416Z,0.20
2018-02-09T05:40:32.551Z,0.20
2018-02-09T05:43:00.684Z,0.10
2018-02-09T05:45:28.818Z,0.10
2018-02-09T05:47:57.707Z,0.10
2018-02-09T05:50:26.613Z,0.10
2018-02-09T05:52:54.759Z,0.10
2018-02-09T05:55:22.901Z,0.10
2018-02-09T05:57:51.017Z,0.10
2018-02-09T06:00:19.920Z,0.10
2018-02-09T06:02:48.076Z,0.10
2018-02-09T06:05:16.991Z,0.20
2018-02-09T06:07:45.131Z,0.20
2018-02-09T06:10:14.013Z,0.20
2018-02-09T06:12:42.164Z,0.20
2018-02-09T06:15:10.290Z,0.30
2018-02-09T06:17:38.415Z,0.30
2018-02-09T06:20:06.579Z,0.30
2018-02-09T06:22:34.713Z,0.30
2018-02-09T06:25:02.856Z,0.30
2018-02-09T06:27:31.757Z,0.20
2018-02-09T06:29:59.900Z,0.20
2018-02-09T06:32:28.033Z,0.20
2018-02-09T06:34:56.205Z,0.20
2018-02-09T06:37:24.338Z,0.20
2018-02-09T06:39:53.243Z,0.30
2018-02-09T06:42:21.381Z,0.20
2018-02-09T06:44:49.506Z,0.30
2018-02-09T06:47:17.663Z,0.40
2018-02-09T06:49:45.772Z,0.40
2018-02-09T06:52:13.925Z,0.40
2018-02-09T06:54:42.068Z,0.40
2018-02-09T06:57:10.198Z,0.40
2018-02-09T06:59:38.339Z,0.40
2018-02-09T07:02:06.484Z,0.40
2018-02-09T07:04:34.604Z,0.40
2018-02-09T07:07:02.738Z,0.40
2018-02-09T07:09:30.858Z,0.50
2018-02-09T07:11:59.000Z,0.50
2018-02-09T07:14:27.155Z,0.50
2018-02-09T07:16:56.042Z,0.50
2018-02-09T07:19:24.181Z,0.50
2018-02-09T07:21:52.315Z,0.50
2018-02-09T07:24:20.436Z,0.50
2018-02-09T07:26:49.349Z,0.60
2018-02-09T07:29:18.245Z,0.60
2018-02-09T07:31:46.390Z,0.60
2018-02-09T07:34:15.290Z,0.60
2018-02-09T07:36:44.208Z,0.60
2018-02-09T07:39:12.346Z,0.60
2018-02-09T07:41:41.262Z,0.70
2018-02-09T07:44:10.130Z,0.70
2018-02-09T07:46:39.020Z,0.80
2018-02-09T07:49:07.932Z,0.70
2018-02-09T07:51:36.054Z,0.70
2018-02-09T07:54:04.200Z,0.70
2018-02-09T07:56:32.347Z,0.80
2018-02-09T07:59:00.476Z,0.80
2018-02-09T08:01:28.612Z,0.80
2018-02-09T08:03:56.734Z,0.80
2018-02-09T08:06:25.658Z,0.80
2018-02-09T08:08:53.799Z,0.80
2018-02-09T08:11:21.919Z,0.90
2018-02-09T08:13:50.087Z,0.90
2018-02-09T08:16:18.245Z,0.90
2018-02-09T08:18:46.410Z,0.90
2018-02-09T08:21:15.290Z,1.00
2018-02-09T08:23:44.218Z,1.10
2018-02-09T08:26:12.345Z,1.00
2018-02-09T08:28:41.234Z,1.10
2018-02-09T08:31:09.395Z,1.10
2018-02-09T08:33:37.526Z,1.00
2018-02-09T08:36:05.665Z,1.10
2018-02-09T08:38:34.573Z,1.10
2018-02-09T08:41:02.713Z,1.00
2018-02-09T08:43:31.667Z,1.20
2018-02-09T08:45:59.774Z,1.10
2018-02-09T08:48:27.913Z,1.20
2018-02-09T08:50:56.049Z,1.20
2018-02-09T08:53:24.217Z,1.10
2018-02-09T08:55:52.363Z,1.10
2018-02-09T08:58:20.514Z,1.10
2018-02-09T09:00:49.426Z,1.20
2018-02-09T09:03:17.563Z,1.20
2018-02-09T09:05:45.695Z,1.30
2018-02-09T09:08:13.858Z,1.40
2018-02-09T09:10:42.764Z,1.50
2018-02-09T09:13:10.894Z,1.40
2018-02-09T09:15:39.034Z,1.50
2018-02-09T09:18:07.956Z,1.60
2018-02-09T09:20:36.102Z,1.60
2018-02-09T09:23:04.252Z,1.60
2018-02-09T09:25:32.400Z,1.60
2018-02-09T09:28:01.349Z,1.70
2018-02-09T09:30:29.454Z,1.70
2018-02-09T09:32:58.421Z,1.80
2018-02-09T09:35:26.535Z,1.80
2018-02-09T09:37:54.694Z,1.80
2018-02-09T09:40:23.586Z,2.00
2018-02-09T09:42:52.753Z,2.00
2018-02-09T09:45:21.001Z,2.00
2018-02-09T09:47:49.150Z,2.00
2018-02-09T09:50:17.303Z,2.00
2018-02-09T09:52:46.185Z,2.10
2018-02-09T09:55:15.124Z,2.10
2018-02-09T09:57:43.259Z,2.10
2018-02-09T10:00:12.157Z,2.20
2018-02-09T10:02:40.284Z,2.20
2018-02-09T10:05:08.415Z,2.30
2018-02-09T10:07:36.568Z,2.30
2018-02-09T10:10:05.467Z,2.30
2018-02-09T10:12:33.610Z,2.20
2018-02-09T10:15:02.143Z,2.20
2018-02-09T10:17:30.297Z,2.30
2018-02-09T10:19:58.430Z,2.30
2018-02-09T10:22:26.564Z,2.30
2018-02-09T10:24:54.739Z,2.40
2018-02-09T10:27:22.857Z,2.50
2018-02-09T10:29:51.789Z,2.40
2018-02-09T10:32:19.905Z,2.40
2018-02-09T10:34:48.056Z,2.50
2018-02-09T10:37:16.191Z,2.50
2018-02-09T10:39:44.666Z,2.50
2018-02-09T10:42:13.645Z,2.30
2018-02-09T10:44:41.810Z,2.30
2018-02-09T10:47:10.010Z,2.30
2018-02-09T10:49:38.410Z,2.30
2018-02-09T10:52:06.697Z,2.30
2018-02-09T10:54:35.592Z,2.30
2018-02-09T10:57:03.751Z,2.30
2018-02-09T10:59:31.886Z,2.40
2018-02-09T11:02:00.047Z,2.40
2018-02-09T11:04:28.949Z,2.40
2018-02-09T11:06:57.072Z,2.40
2018-02-09T11:09:30.919Z,2.60
2018-02-09T11:12:01.575Z,2.60
2018-02-09T11:14:30.479Z,2.60
2018-02-09T11:16:58.640Z,2.50
2018-02-09T11:19:26.791Z,2.60
2018-02-09T11:21:55.726Z,2.60
2018-02-09T11:24:23.828Z,2.50
2018-02-09T11:26:51.996Z,2.60
2018-02-09T11:29:20.140Z,2.60
2018-02-09T11:31:48.283Z,2.60
2018-02-09T11:34:16.426Z,2.50
2018-02-09T11:36:44.576Z,2.40
2018-02-09T11:39:12.698Z,2.40
2018-02-09T11:41:41.603Z,2.40
2018-02-09T11:44:09.777Z,2.40
2018-02-09T11:46:37.912Z,2.40
2018-02-09T11:49:06.823Z,2.50
2018-02-09T11:51:34.967Z,2.50
2018-02-09T11:54:03.140Z,2.60
2018-02-09T11:56:32.066Z,2.60
2018-02-09T11:59:00.200Z,2.50
2018-02-09T12:01:29.148Z,2.70
2018-02-09T12:03:57.270Z,2.60
2018-02-09T12:06:25.422Z,2.70
2018-02-09T12:08:53.589Z,2.80
2018-02-09T12:11:21.791Z,2.80
2018-02-09T12:13:49.911Z,2.80
2018-02-09T12:16:18.038Z,2.80
2018-02-09T12:18:46.957Z,2.80
2018-02-09T12:21:15.119Z,2.80
2018-02-09T12:23:43.277Z,2.80
2018-02-09T12:26:12.203Z,2.80
2018-02-09T12:28:40.356Z,2.80
2018-02-09T12:31:08.503Z,2.80
2018-02-09T12:33:36.677Z,2.70
2018-02-09T12:36:05.589Z,2.50
2018-02-09T12:38:33.761Z,2.50
2018-02-09T12:41:01.905Z,2.60
2018-02-09T12:43:30.030Z,2.60
2018-02-09T12:45:58.187Z,2.70
2018-02-09T12:48:26.309Z,2.70
2018-02-09T12:50:54.458Z,2.70
2018-02-09T12:53:22.604Z,2.60
2018-02-09T12:55:50.743Z,2.60
2018-02-09T12:58:18.877Z,2.50
2018-02-09T13:00:47.067Z,2.40
2018-02-09T13:03:15.218Z,2.30
2018-02-09T13:05:43.340Z,2.30
2018-02-09T13:08:12.270Z,2.40
2018-02-09T13:10:40.378Z,2.40
2018-02-09T13:13:11.178Z,2.50
2018-02-09T13:15:39.343Z,2.50
2018-02-09T13:18:07.486Z,2.50
2018-02-09T13:20:35.623Z,2.60
2018-02-09T13:26:06.324Z,2.40
2018-02-09T13:28:46.351Z,2.40
2018-02-09T13:31:15.265Z,2.40
2018-02-09T13:33:44.147Z,2.40
2018-02-09T13:36:15.251Z,2.40
2018-02-09T13:38:43.381Z,2.40
2018-02-09T13:41:11.578Z,2.40
2018-02-09T13:43:40.484Z,2.40
2018-02-09T13:46:08.644Z,2.40
2018-02-09T13:48:36.799Z,2.50
2018-02-09T13:51:04.933Z,2.40
2018-02-09T13:53:33.835Z,2.30
2018-02-09T13:56:02.719Z,2.30
2018-02-09T13:58:31.641Z,2.30
2018-02-09T14:00:59.817Z,2.30
2018-02-09T14:03:28.004Z,2.30
2018-02-09T14:05:56.881Z,2.30
2018-02-09T14:08:25.015Z,2.30
2018-02-09T14:10:53.951Z,2.30
2018-02-09T14:13:22.091Z,2.20
2018-02-09T14:15:50.322Z,2.30
2018-02-09T14:18:18.487Z,2.30
2018-02-09T14:20:46.665Z,2.20
2018-02-09T14:23:14.782Z,2.20
2018-02-09T14:25:42.958Z,2.20
2018-02-09T14:28:11.097Z,2.30
2018-02-09T14:30:39.267Z,2.20
2018-02-09T14:33:07.423Z,2.20
2018-02-09T14:35:35.563Z,2.20
2018-02-09T14:38:03.719Z,2.20
2018-02-09T14:40:31.916Z,2.20
2018-02-09T14:43:00.077Z,2.20
2018-02-09T14:45:28.187Z,2.10
2018-02-09T14:47:56.346Z,2.10
2018-02-09T14:50:24.570Z,2.00
2018-02-09T14:52:52.742Z,2.00
2018-02-09T14:55:21.038Z,2.00
2018-02-09T14:57:49.191Z,2.10
2018-02-09T15:00:17.350Z,2.10
2018-02-09T15:02:45.475Z,2.10
2018-02-09T15:05:13.627Z,2.10
2018-02-09T15:07:42.564Z,2.10
2018-02-09T15:10:10.711Z,2.10
2018-02-09T15:12:38.865Z,2.00
2018-02-09T15:15:07.014Z,2.00
2018-02-09T15:17:35.157Z,1.90
2018-02-09T15:20:03.309Z,1.90
2018-02-09T15:22:31.436Z,1.90
2018-02-09T15:25:00.326Z,1.80
2018-02-09T15:27:29.231Z,1.80
2018-02-09T15:29:58.132Z,1.90
2018-02-09T15:32:26.259Z,1.80
2018-02-09T15:34:54.472Z,1.80
2018-02-09T15:37:22.634Z,1.80
2018-02-09T15:39:50.831Z,1.80
2018-02-09T15:42:18.974Z,1.70
2018-02-09T15:44:47.890Z,1.60
2018-02-09T15:47:16.023Z,1.60
2018-02-09T15:49:44.141Z,1.70
2018-02-09T15:52:12.296Z,1.70
2018-02-09T15:54:40.459Z,1.70
2018-02-09T15:57:09.373Z,1.60
2018-02-09T15:59:37.516Z,1.60
2018-02-09T16:02:05.645Z,1.60
2018-02-09T16:04:34.788Z,1.60
2018-02-09T16:07:02.933Z,1.60
2018-02-09T16:09:31.101Z,1.60
2018-02-09T16:11:59.239Z,1.70
2018-02-09T16:14:27.366Z,1.60
2018-02-09T16:16:56.282Z,1.60
2018-02-09T16:19:24.433Z,1.60
2018-02-09T16:21:53.358Z,1.60
2018-02-09T16:24:21.498Z,1.50
2018-02-09T16:26:50.407Z,1.50
2018-02-09T16:29:18.546Z,1.50
2018-02-09T16:31:46.733Z,1.50
2018-02-09T16:34:15.709Z,1.40
2018-02-09T16:36:43.866Z,1.40
2018-02-09T16:39:12.045Z,1.40
2018-02-09T16:41:40.191Z,1.40
2018-02-09T16:44:08.362Z,1.40
2018-02-09T16:46:36.527Z,1.40
2018-02-09T16:49:04.653Z,1.50
2018-02-09T16:51:33.562Z,1.50
2018-02-09T16:54:01.741Z,1.50
2018-02-09T16:56:29.879Z,1.50
2018-02-09T16:58:58.804Z,1.60
2018-02-09T17:01:26.944Z,1.50
2018-02-09T17:03:55.844Z,1.60
2018-02-09T17:06:24.749Z,1.50
2018-02-09T17:08:53.649Z,1.50
2018-02-09T17:11:21.933Z,1.50
2018-02-09T17:13:50.047Z,1.40
2018-02-09T17:16:18.198Z,1.40
2018-02-09T17:18:46.362Z,1.20
2018-02-09T17:21:14.484Z,1.10
2018-02-09T17:23:43.399Z,1.10
2018-02-09T17:26:11.520Z,1.10
2018-02-09T17:28:39.663Z,1.10
2018-02-09T17:31:08.623Z,1.00
2018-02-09T17:33:37.533Z,1.10
2018-02-09T17:36:05.746Z,1.10
2018-02-09T17:38:33.866Z,1.10
2018-02-09T17:41:02.730Z,1.10
2018-02-09T17:43:30.901Z,1.00
2018-02-09T17:45:59.052Z,1.10
2018-02-09T17:48:27.252Z,1.10
2018-02-09T17:50:55.389Z,1.10
2018-02-09T17:53:23.523Z,1.10
2018-02-09T17:55:51.666Z,1.20
2018-02-09T17:58:19.805Z,1.20
2018-02-09T18:00:48.375Z,1.20
2018-02-09T18:03:16.606Z,1.20
2018-02-09T18:05:44.745Z,1.20
2018-02-09T18:08:12.977Z,1.20
2018-02-09T18:10:41.166Z,1.20
2018-02-09T18:13:09.346Z,1.10
2018-02-09T18:15:37.494Z,1.10
2018-02-09T18:18:06.419Z,1.10
2018-02-09T18:20:34.628Z,1.10
2018-02-09T18:23:02.743Z,1.10
2018-02-09T18:25:30.946Z,1.20
2018-02-09T18:27:59.049Z,1.20
2018-02-09T18:30:27.195Z,1.20
2018-02-09T18:32:55.349Z,1.20
2018-02-09T18:35:23.581Z,1.20
2018-02-09T18:37:51.702Z,1.20
2018-02-09T18:40:19.857Z,1.20
2018-02-09T18:42:47.997Z,1.20
2018-02-09T18:45:16.929Z,1.20
2018-02-09T18:47:45.085Z,1.20
2018-02-09T18:50:13.273Z,1.20
2018-02-09T18:52:41.418Z,1.20
2018-02-09T18:55:09.623Z,1.20
2018-02-09T18:57:37.783Z,1.20
2018-02-09T19:00:05.910Z,1.20
2018-02-09T19:02:34.819Z,1.20
2018-02-09T19:05:02.980Z,1.10
2018-02-09T19:07:31.919Z,1.20
2018-02-09T19:10:00.048Z,1.10
2018-02-09T19:12:29.027Z,1.20
2018-02-09T19:14:57.147Z,1.20
2018-02-09T19:17:25.321Z,1.20
2018-02-09T19:19:53.505Z,1.20
2018-02-09T19:22:22.407Z,1.30
2018-02-09T19:24:50.541Z,1.20
2018-02-09T19:27:18.668Z,1.30
2018-02-09T19:29:46.897Z,1.30
2018-02-09T19:32:15.111Z,1.30
2018-02-09T19:34:43.352Z,1.30
2018-02-09T19:37:11.571Z,1.30
2018-02-09T19:39:39.809Z,1.30
2018-02-09T19:42:08.308Z,1.20
2018-02-09T19:44:37.472Z,1.20
2018-02-09T19:47:05.625Z,1.20
2018-02-09T19:49:33.813Z,1.20
2018-02-09T19:52:02.012Z,1.20
2018-02-09T19:54:30.209Z,1.20
2018-02-09T19:56:58.358Z,1.10
2018-02-09T19:59:26.527Z,1.20
2018-02-09T20:01:54.721Z,1.10
2018-02-09T20:04:22.906Z,1.10
2018-02-09T20:06:51.085Z,1.10
2018-02-09T20:09:19.274Z,1.10
2018-02-09T20:11:47.535Z,1.10
2018-02-09T20:14:15.694Z,1.10
2018-02-09T20:16:43.913Z,1.10
2018-02-09T20:19:12.099Z,1.10
2018-02-09T20:21:40.273Z,1.00
2018-02-09T20:24:08.454Z,1.00
2018-02-09T20:26:37.652Z,1.00
2018-02-09T20:29:05.807Z,1.00
2018-02-09T20:31:34.023Z,1.00
2018-02-09T20:34:02.411Z,1.00
2018-02-09T20:36:30.609Z,1.00
2018-02-09T20:39:02.194Z,1.00
2018-02-09T20:41:35.144Z,1.00
2018-02-09T20:44:03.401Z,1.00
2018-02-09T20:46:31.592Z,1.10
2018-02-09T20:49:00.561Z,1.00
2018-02-09T20:51:28.730Z,1.00
2018-02-09T20:53:56.984Z,1.00
2018-02-09T20:56:25.161Z,1.10
2018-02-09T20:58:54.932Z,1.00
2018-02-09T21:01:23.128Z,1.00
2018-02-09T21:03:51.335Z,1.00
2018-02-09T21:06:19.525Z,1.00
2018-02-09T21:08:47.744Z,0.90
2018-02-09T21:11:15.908Z,1.00
2018-02-09T21:13:44.086Z,1.00
2018-02-09T21:16:12.241Z,1.00
2018-02-09T21:18:40.554Z,0.90
2018-02-09T21:21:08.699Z,0.90
2018-02-09T21:23:36.895Z,1.00
2018-02-09T21:26:05.084Z,1.00
2018-02-09T21:28:33.281Z,1.00
2018-02-09T21:31:01.470Z,0.90
2018-02-09T21:33:29.629Z,0.80
2018-02-09T21:35:58.606Z,0.70
2018-02-09T21:38:27.080Z,0.70
2018-02-09T21:40:55.477Z,0.70
2018-02-09T21:43:24.398Z,0.70
2018-02-09T21:45:53.563Z,0.70
2018-02-09T21:48:21.751Z,0.80
2018-02-09T21:50:50.709Z,0.70
2018-02-09T21:53:18.847Z,0.70
2018-02-09T21:55:47.003Z,0.70
2018-02-09T21:58:15.613Z,0.80
2018-02-09T22:00:44.667Z,0.90
2018-02-09T22:03:13.582Z,0.80
2018-02-09T22:05:41.702Z,0.90
2018-02-09T22:08:09.851Z,0.80
2018-02-09T22:10:39.481Z,0.80
2018-02-09T22:13:07.669Z,0.80
2018-02-09T22:15:35.826Z,0.80
2018-02-09T22:18:03.970Z,0.90
2018-02-09T22:20:32.115Z,0.80
2018-02-09T22:23:00.334Z,0.80
2018-02-09T22:25:28.471Z,0.80
2018-02-09T22:27:56.609Z,0.70
2018-02-09T22:30:24.764Z,0.60
2018-02-09T22:32:53.045Z,0.60
2018-02-09T22:35:21.415Z,0.60
2018-02-09T22:37:49.541Z,0.70
2018-02-09T22:40:17.670Z,0.70
2018-02-09T22:42:45.814Z,0.70
2018-02-09T22:45:13.957Z,0.80
2018-02-09T22:47:42.094Z,0.80
2018-02-09T22:50:11.030Z,0.80
2018-02-09T22:52:39.171Z,0.80
2018-02-09T22:55:08.106Z,0.90
2018-02-09T22:57:36.226Z,0.90
2018-02-09T23:00:05.138Z,0.90
2018-02-09T23:02:34.299Z,0.90
2018-02-09T23:05:02.431Z,0.90
2018-02-09T23:07:30.697Z,1.00
2018-02-09T23:09:58.987Z,1.00
2018-02-09T23:12:27.126Z,1.00
2018-02-09T23:14:55.298Z,1.00
2018-02-09T23:17:25.025Z,1.10
2018-02-09T23:19:53.152Z,1.00
2018-02-09T23:22:21.316Z,1.00
2018-02-09T23:24:49.448Z,1.00
2018-02-09T23:27:17.854Z,1.00
2018-02-09T23:29:46.008Z,1.00
2018-02-09T23:32:14.512Z,1.00
2018-02-09T23:34:42.635Z,1.00
2018-02-09T23:37:10.828Z,1.00
2018-02-09T23:39:38.984Z,1.00
2018-02-09T23:42:07.110Z,1.00
2018-02-09T23:44:35.335Z,1.00
2018-02-09T23:47:04.290Z,1.10
2018-02-09T23:49:34.214Z,1.10
2018-02-09T23:52:03.239Z,1.10
2018-02-09T23:54:31.379Z,1.10
2018-02-09T23:57:00.274Z,1.10
2018-02-09T23:59:28.420Z,1.10
